Time,TemperatureF,DewpointF,PressureIn,WindDirection,WindDirectionDegrees,WindSpeedMPH,WindSpeedGustMPH,Humidity,HourlyPrecipIn,Conditions,Clouds,dailyrainin,SoftwareType,DateUTC
2013-01-17 00:00:00,29.6,28.9,29.89,North,9,0.0,8.0,97,0.00,,,0.00,Wunderground v.1.15,2013-01-17 05:00:00,
2013-01-17 00:05:00,29.6,28.9,29.89,North,9,0.0,8.0,97,0.00,,,0.00,Wunderground v.1.15,2013-01-17 05:05:00,
2013-01-17 00:10:00,29.9,29.4,29.90,North,9,0.0,8.0,98,0.00,,,0.00,Wunderground v.1.15,2013-01-17 05:10:00,
2013-01-17 00:15:00,29.9,29.2,29.90,North,9,0.0,8.0,97,0.00,,,0.00,Wunderground v.1.15,2013-01-17 05:15:00,
2013-01-17 00:25:00,30.0,29.3,29.90,North,9,0.0,8.0,97,0.00,,,0.00,Wunderground v.1.15,2013-01-17 05:25:00,
2013-01-17 00:30:00,30.1,29.4,29.91,North,9,0.0,8.0,97,0.00,,,0.00,Wunderground v.1.15,2013-01-17 05:30:00,
2013-01-17 00:35:00,30.1,29.4,29.91,North,9,0.0,8.0,97,0.00,,,0.00,Wunderground v.1.15,2013-01-17 05:35:00,
2013-01-17 00:40:00,30.1,29.4,29.91,North,9,0.0,8.0,97,0.00,,,0.00,Wunderground v.1.15,2013-01-17 05:40:00,
2013-01-17 00:45:00,30.1,29.4,29.91,North,9,0.0,8.0,97,0.00,,,0.00,Wunderground v.1.15,2013-01-17 05:45:00,
2013-01-17 00:50:00,30.2,29.5,29.91,North,9,0.0,8.0,97,0.00,,,0.00,Wunderground v.1.15,2013-01-17 05:50:00,
2013-01-17 00:55:00,30.2,29.5,29.92,North,9,0.0,8.0,97,0.00,,,0.00,Wunderground v.1.15,2013-01-17 05:55:00,
2013-01-17 01:00:00,30.2,29.5,29.92,North,9,0.0,8.0,97,0.00,,,0.00,Wunderground v.1.15,2013-01-17 06:00:00,
2013-01-17 01:10:00,30.3,29.6,29.91,North,9,1.0,1.0,97,0.00,,,0.00,Wunderground v.1.15,2013-01-17 06:10:00,
2013-01-17 01:15:00,30.4,29.7,29.91,North,9,0.0,8.0,97,0.00,,,0.00,Wunderground v.1.15,2013-01-17 06:15:00,
2013-01-17 01:20:00,30.5,29.5,29.91,North,9,0.0,8.0,96,0.00,,,0.00,Wunderground v.1.15,2013-01-17 06:20:00,
2013-01-17 01:25:00,30.4,29.4,29.91,North,9,0.0,8.0,96,0.00,,,0.00,Wunderground v.1.15,2013-01-17 06:25:00,
2013-01-17 01:30:00,30.5,29.5,29.91,North,9,0.0,8.0,96,0.00,,,0.00,Wunderground v.1.15,2013-01-17 06:30:00,
2013-01-17 01:35:00,30.3,29.3,29.91,North,9,0.0,8.0,96,0.00,,,0.00,Wunderground v.1.15,2013-01-17 06:35:00,
2013-01-17 01:40:00,30.3,29.3,29.91,North,9,0.0,8.0,96,0.00,,,0.00,Wunderground v.1.15,2013-01-17 06:40:00,
2013-01-17 01:45:00,30.4,29.4,29.91,North,9,0.0,8.0,96,0.00,,,0.00,Wunderground v.1.15,2013-01-17 06:45:00,
2013-01-17 01:55:00,30.4,29.4,29.92,North,9,0.0,8.0,96,0.00,,,0.00,Wunderground v.1.15,2013-01-17 06:55:00,
2013-01-17 02:00:00,30.4,29.4,29.92,North,9,0.0,8.0,96,0.00,,,0.00,Wunderground v.1.15,2013-01-17 07:00:00,
2013-01-17 02:05:00,30.4,29.4,29.92,North,9,0.0,8.0,96,0.00,,,0.00,Wunderground v.1.15,2013-01-17 07:05:00,
2013-01-17 02:10:00,30.4,29.4,29.92,North,9,0.0,8.0,96,0.00,,,0.00,Wunderground v.1.15,2013-01-17 07:10:00,
2013-01-17 02:15:00,30.4,29.1,29.91,North,9,0.0,8.0,95,0.00,,,0.00,Wunderground v.1.15,2013-01-17 07:15:00,
2013-01-17 02:20:00,30.5,29.2,29.91,North,9,0.0,8.0,95,0.00,,,0.00,Wunderground v.1.15,2013-01-17 07:20:00,
2013-01-17 02:30:00,30.5,29.2,29.92,North,9,0.0,8.0,95,0.00,,,0.00,Wunderground v.1.15,2013-01-17 07:30:00,
2013-01-17 02:35:00,30.5,29.2,29.92,North,9,0.0,8.0,95,0.00,,,0.00,Wunderground v.1.15,2013-01-17 07:35:00,
2013-01-17 02:40:00,30.4,29.1,29.92,North,9,0.0,8.0,95,0.00,,,0.00,Wunderground v.1.15,2013-01-17 07:40:00,
2013-01-17 02:45:00,30.4,29.1,29.92,North,9,0.0,8.0,95,0.00,,,0.00,Wunderground v.1.15,2013-01-17 07:45:00,
2013-01-17 02:50:00,30.5,29.2,29.92,North,9,0.0,8.0,95,0.00,,,0.00,Wunderground v.1.15,2013-01-17 07:50:00,
2013-01-17 02:55:00,30.6,29.1,29.92,North,9,0.0,8.0,94,0.00,,,0.00,Wunderground v.1.15,2013-01-17 07:55:00,
2013-01-17 03:00:00,30.6,29.1,29.92,North,9,1.0,1.0,94,0.00,,,0.00,Wunderground v.1.15,2013-01-17 08:00:00,
2013-01-17 03:05:00,30.5,29.0,29.92,North,9,1.0,8.0,94,0.00,,,0.00,Wunderground v.1.15,2013-01-17 08:05:00,
2013-01-17 03:15:00,30.5,29.0,29.93,North,9,0.0,8.0,94,0.00,,,0.00,Wunderground v.1.15,2013-01-17 08:15:00,
2013-01-17 03:20:00,30.4,28.9,29.93,North,9,0.0,8.0,94,0.00,,,0.00,Wunderground v.1.15,2013-01-17 08:20:00,
2013-01-17 03:25:00,30.4,28.9,29.93,North,9,0.0,8.0,94,0.00,,,0.00,Wunderground v.1.15,2013-01-17 08:25:00,
2013-01-17 03:30:00,30.3,28.8,29.92,North,9,0.0,8.0,94,0.00,,,0.00,Wunderground v.1.15,2013-01-17 08:30:00,
2013-01-17 03:35:00,30.3,29.0,29.92,North,9,0.0,8.0,95,0.00,,,0.00,Wunderground v.1.15,2013-01-17 08:35:00,
2013-01-17 03:40:00,30.3,28.8,29.92,North,9,0.0,8.0,94,0.00,,,0.00,Wunderground v.1.15,2013-01-17 08:40:00,
2013-01-17 03:50:00,30.2,28.7,29.91,North,9,1.0,8.0,94,0.00,,,0.00,Wunderground v.1.15,2013-01-17 08:50:00,
2013-01-17 03:55:00,30.3,28.8,29.90,North,9,1.0,8.0,94,0.00,,,0.00,Wunderground v.1.15,2013-01-17 08:55:00,
2013-01-17 04:00:00,30.2,28.7,29.91,North,9,0.0,8.0,94,0.00,,,0.00,Wunderground v.1.15,2013-01-17 09:00:00,
2013-01-17 04:05:00,30.1,28.6,29.91,North,9,0.0,8.0,94,0.00,,,0.00,Wunderground v.1.15,2013-01-17 09:05:00,
2013-01-17 04:10:00,30.1,28.6,29.91,North,9,0.0,8.0,94,0.00,,,0.00,Wunderground v.1.15,2013-01-17 09:10:00,
2013-01-17 04:15:00,30.2,28.7,29.91,North,9,1.0,8.0,94,0.00,,,0.00,Wunderground v.1.15,2013-01-17 09:15:00,
2013-01-17 04:25:00,30.0,28.2,29.90,North,9,0.0,8.0,93,0.00,,,0.00,Wunderground v.1.15,2013-01-17 09:25:00,
2013-01-17 04:30:00,29.8,28.0,29.90,North,9,0.0,8.0,93,0.00,,,0.00,Wunderground v.1.15,2013-01-17 09:30:00,
2013-01-17 04:35:00,29.7,28.2,29.90,North,9,0.0,8.0,94,0.00,,,0.00,Wunderground v.1.15,2013-01-17 09:35:00,
2013-01-17 04:40:00,29.7,28.2,29.91,North,9,1.0,8.0,94,0.00,,,0.00,Wunderground v.1.15,2013-01-17 09:40:00,
2013-01-17 04:50:00,29.9,28.1,29.91,North,9,2.0,2.0,93,0.00,,,0.00,Wunderground v.1.15,2013-01-17 09:50:00,
2013-01-17 04:55:00,29.8,28.0,29.92,North,9,1.0,4.0,93,0.00,,,0.00,Wunderground v.1.15,2013-01-17 09:55:00,
2013-01-17 05:00:00,29.9,28.1,29.91,North,9,1.0,8.0,93,0.00,,,0.00,Wunderground v.1.15,2013-01-17 10:00:00,
2013-01-17 05:05:00,30.0,28.2,29.91,North,9,2.0,8.0,93,0.00,,,0.00,Wunderground v.1.15,2013-01-17 10:05:00,
2013-01-17 05:15:00,30.0,28.0,29.92,North,9,1.0,8.0,92,0.00,,,0.00,Wunderground v.1.15,2013-01-17 10:15:00,
2013-01-17 05:20:00,30.0,28.2,29.93,North,9,1.0,8.0,93,0.00,,,0.00,Wunderground v.1.15,2013-01-17 10:20:00,
2013-01-17 05:25:00,30.1,28.1,29.92,North,9,2.0,8.0,92,0.00,,,0.00,Wunderground v.1.15,2013-01-17 10:25:00,
2013-01-17 05:30:00,30.0,28.0,29.92,North,9,1.0,8.0,92,0.00,,,0.00,Wunderground v.1.15,2013-01-17 10:30:00,
2013-01-17 05:35:00,29.9,27.9,29.92,North,9,0.0,8.0,92,0.00,,,0.00,Wunderground v.1.15,2013-01-17 10:35:00,
2013-01-17 05:40:00,29.7,27.7,29.92,North,9,0.0,8.0,92,0.00,,,0.00,Wunderground v.1.15,2013-01-17 10:40:00,
2013-01-17 05:50:00,29.5,27.5,29.93,North,9,1.0,1.0,92,0.00,,,0.00,Wunderground v.1.15,2013-01-17 10:50:00,
2013-01-17 05:55:00,29.5,27.7,29.94,North,9,1.0,2.0,93,0.00,,,0.00,Wunderground v.1.15,2013-01-17 10:55:00,
2013-01-17 06:00:00,29.7,27.9,29.95,North,9,1.0,8.0,93,0.00,,,0.00,Wunderground v.1.15,2013-01-17 11:00:00,
2013-01-17 06:05:00,29.7,27.7,29.94,North,9,1.0,8.0,92,0.00,,,0.00,Wunderground v.1.15,2013-01-17 11:05:00,
2013-01-17 06:10:00,29.7,27.7,29.94,North,9,0.0,8.0,92,0.00,,,0.00,Wunderground v.1.15,2013-01-17 11:10:00,
2013-01-17 06:15:00,29.6,27.6,29.95,North,9,0.0,8.0,92,0.00,,,0.00,Wunderground v.1.15,2013-01-17 11:15:00,
2013-01-17 06:20:00,29.4,27.6,29.95,North,9,0.0,8.0,93,0.00,,,0.00,Wunderground v.1.15,2013-01-17 11:20:00,
2013-01-17 06:30:00,29.1,27.3,29.95,North,9,0.0,8.0,93,0.00,,,0.00,Wunderground v.1.15,2013-01-17 11:30:00,
2013-01-17 06:35:00,29.0,27.2,29.96,North,9,0.0,8.0,93,0.00,,,0.00,Wunderground v.1.15,2013-01-17 11:35:00,
2013-01-17 06:40:00,29.0,27.2,29.96,North,9,0.0,8.0,93,0.00,,,0.00,Wunderground v.1.15,2013-01-17 11:40:00,
2013-01-17 06:45:00,29.0,27.5,29.97,North,9,0.0,8.0,94,0.00,,,0.00,Wunderground v.1.15,2013-01-17 11:45:00,
2013-01-17 06:50:00,28.9,27.1,29.97,North,9,0.0,8.0,93,0.00,,,0.00,Wunderground v.1.15,2013-01-17 11:50:00,
2013-01-17 06:55:00,28.8,27.0,29.97,North,9,0.0,8.0,93,0.00,,,0.00,Wunderground v.1.15,2013-01-17 11:55:00,
2013-01-17 07:05:00,28.6,26.8,29.98,North,9,0.0,8.0,93,0.00,,,0.00,Wunderground v.1.15,2013-01-17 12:05:00,
2013-01-17 07:10:00,28.7,26.9,29.97,North,9,0.0,8.0,93,0.00,,,0.00,Wunderground v.1.15,2013-01-17 12:10:00,
2013-01-17 07:15:00,28.8,27.0,29.98,North,9,0.0,8.0,93,0.00,,,0.00,Wunderground v.1.15,2013-01-17 12:15:00,
2013-01-17 07:20:00,28.9,27.1,29.99,North,9,0.0,8.0,93,0.00,,,0.00,Wunderground v.1.15,2013-01-17 12:20:00,
2013-01-17 07:25:00,29.0,27.2,29.99,North,9,0.0,8.0,93,0.00,,,0.00,Wunderground v.1.15,2013-01-17 12:25:00,
2013-01-17 07:30:00,29.0,27.2,29.99,North,9,0.0,8.0,93,0.00,,,0.00,Wunderground v.1.15,2013-01-17 12:30:00,
2013-01-17 07:35:00,29.2,27.2,29.99,North,9,0.0,8.0,92,0.00,,,0.00,Wunderground v.1.15,2013-01-17 12:35:00,
2013-01-17 07:40:00,29.3,27.3,30.00,North,9,1.0,1.0,92,0.00,,,0.00,Wunderground v.1.15,2013-01-17 12:40:00,
2013-01-17 07:50:00,29.4,27.4,30.00,North,9,0.0,8.0,92,0.00,,,0.00,Wunderground v.1.15,2013-01-17 12:50:00,
2013-01-17 07:55:00,29.7,27.7,29.99,North,9,1.0,8.0,92,0.00,,,0.00,Wunderground v.1.15,2013-01-17 12:55:00,
2013-01-17 08:00:00,29.9,27.6,29.99,North,9,2.0,2.0,91,0.00,,,0.00,Wunderground v.1.15,2013-01-17 13:00:00,
2013-01-17 08:05:00,30.2,27.9,29.99,North,9,2.0,8.0,91,0.00,,,0.00,Wunderground v.1.15,2013-01-17 13:05:00,
2013-01-17 08:10:00,30.3,27.7,29.98,North,9,2.0,8.0,90,0.00,,,0.00,Wunderground v.1.15,2013-01-17 13:10:00,
2013-01-17 08:15:00,30.5,27.9,29.99,North,9,2.0,8.0,90,0.00,,,0.00,Wunderground v.1.15,2013-01-17 13:15:00,
2013-01-17 08:20:00,30.4,28.1,29.99,North,9,1.0,1.0,91,0.00,,,0.00,Wunderground v.1.15,2013-01-17 13:20:00,
2013-01-17 08:30:00,30.5,28.2,30.00,North,9,1.0,8.0,91,0.00,,,0.00,Wunderground v.1.15,2013-01-17 13:30:00,
2013-01-17 08:35:00,30.6,28.3,30.00,North,9,1.0,8.0,91,0.00,,,0.00,Wunderground v.1.15,2013-01-17 13:35:00,
2013-01-17 08:40:00,30.8,28.2,30.01,North,9,1.0,8.0,90,0.00,,,0.00,Wunderground v.1.15,2013-01-17 13:40:00,
2013-01-17 08:45:00,31.0,28.4,30.01,North,9,2.0,8.0,90,0.00,,,0.00,Wunderground v.1.15,2013-01-17 13:45:00,
2013-01-17 08:50:00,31.1,28.5,30.01,North,9,1.0,8.0,90,0.00,,,0.00,Wunderground v.1.15,2013-01-17 13:50:00,
2013-01-17 08:55:00,31.3,28.7,30.01,North,9,0.0,8.0,90,0.00,,,0.00,Wunderground v.1.15,2013-01-17 13:55:00,
2013-01-17 09:05:00,31.7,29.1,30.01,North,9,0.0,8.0,90,0.00,,,0.00,Wunderground v.1.15,2013-01-17 14:05:00,
2013-01-17 09:10:00,31.9,29.3,30.01,North,9,0.0,8.0,90,0.00,,,0.00,Wunderground v.1.15,2013-01-17 14:10:00,
2013-01-17 09:15:00,32.1,29.2,30.01,North,9,0.0,8.0,89,0.00,,,0.00,Wunderground v.1.15,2013-01-17 14:15:00,
2013-01-17 09:20:00,32.6,29.7,30.01,North,9,1.0,8.0,89,0.00,,,0.00,Wunderground v.1.15,2013-01-17 14:20:00,
2013-01-17 09:25:00,33.0,29.6,30.01,NNW,339,2.0,8.0,87,0.00,,,0.00,Wunderground v.1.15,2013-01-17 14:25:00,
2013-01-17 09:30:00,33.4,30.2,30.02,NNE,12,2.0,2.0,88,0.00,,,0.00,Wunderground v.1.15,2013-01-17 14:30:00,
2013-01-17 09:35:00,33.6,30.1,30.03,WNW,298,1.0,8.0,87,0.00,,,0.00,Wunderground v.1.15,2013-01-17 14:35:00,
2013-01-17 09:45:00,34.4,30.6,30.03,NW,326,1.0,8.0,86,0.00,,,0.00,Wunderground v.1.15,2013-01-17 14:45:00,
2013-01-17 09:50:00,34.7,30.7,30.03,NE,53,2.0,8.0,85,0.00,,,0.00,Wunderground v.1.15,2013-01-17 14:50:00,
2013-01-17 09:55:00,34.5,30.5,30.03,NNW,342,1.0,8.0,85,0.00,,,0.00,Wunderground v.1.15,2013-01-17 14:55:00,
2013-01-17 10:00:00,34.3,30.3,30.04,NE,42,1.0,8.0,85,0.00,,,0.00,Wunderground v.1.15,2013-01-17 15:00:00,
2013-01-17 10:05:00,34.2,30.4,30.05,NNE,18,1.0,8.0,86,0.00,,,0.00,Wunderground v.1.15,2013-01-17 15:05:00,
2013-01-17 10:10:00,34.4,30.6,30.04,NNE,18,1.0,1.0,86,0.00,,,0.00,Wunderground v.1.15,2013-01-17 15:10:00,
2013-01-17 10:15:00,34.4,30.4,30.04,NNE,32,1.0,2.0,85,0.00,,,0.00,Wunderground v.1.15,2013-01-17 15:15:00,
2013-01-17 10:20:00,34.2,30.2,30.05,NNE,22,1.0,8.0,85,0.00,,,0.00,Wunderground v.1.15,2013-01-17 15:20:00,
2013-01-17 10:30:00,34.2,30.4,30.04,NE,40,1.0,1.0,86,0.00,,,0.00,Wunderground v.1.15,2013-01-17 15:30:00,
2013-01-17 10:35:00,34.4,30.6,30.03,ENE,61,0.0,8.0,86,0.00,,,0.00,Wunderground v.1.15,2013-01-17 15:35:00,
2013-01-17 10:40:00,34.6,30.3,30.05,NW,306,0.0,8.0,84,0.00,,,0.00,Wunderground v.1.15,2013-01-17 15:40:00,
2013-01-17 10:45:00,34.7,30.4,30.04,NNW,334,1.0,8.0,84,0.00,,,0.00,Wunderground v.1.15,2013-01-17 15:45:00,
2013-01-17 10:50:00,35.0,30.9,30.04,NNW,333,1.0,1.0,85,0.00,,,0.00,Wunderground v.1.15,2013-01-17 15:50:00,
2013-01-17 10:55:00,35.6,31.2,30.05,NNW,333,0.0,8.0,84,0.24,,,0.02,Wunderground v.1.15,2013-01-17 15:55:00,
2013-01-17 11:05:00,35.6,30.9,30.04,NW,306,0.0,8.0,83,0.06,,,0.02,Wunderground v.1.15,2013-01-17 16:05:00,
2013-01-17 11:10:00,35.7,31.0,30.04,WNW,293,1.0,8.0,83,0.06,,,0.03,Wunderground v.1.15,2013-01-17 16:10:00,
2013-01-17 11:15:00,35.7,31.3,30.04,WNW,288,1.0,8.0,84,0.06,,,0.03,Wunderground v.1.15,2013-01-17 16:15:00,
2013-01-17 11:20:00,35.6,30.9,30.03,NW,317,1.0,8.0,83,0.06,,,0.04,Wunderground v.1.15,2013-01-17 16:20:00,
2013-01-17 11:25:00,35.6,30.9,30.03,NW,309,2.0,8.0,83,0.10,,,0.05,Wunderground v.1.15,2013-01-17 16:25:00,
2013-01-17 11:30:00,35.6,31.2,30.03,West,269,1.0,8.0,84,0.07,,,0.05,Wunderground v.1.15,2013-01-17 16:30:00,
2013-01-17 11:35:00,35.6,30.9,30.03,WSW,254,1.0,8.0,83,0.05,,,0.06,Wunderground v.1.15,2013-01-17 16:35:00,
2013-01-17 11:45:00,35.9,31.2,30.03,West,269,1.0,8.0,83,0.05,,,0.06,Wunderground v.1.15,2013-01-17 16:45:00,
2013-01-17 11:50:00,36.1,31.4,30.04,NW,306,1.0,1.0,83,0.04,,,0.06,Wunderground v.1.15,2013-01-17 16:50:00,
2013-01-17 11:55:00,36.2,31.5,30.03,NNE,18,1.0,8.0,83,0.00,,,0.07,Wunderground v.1.15,2013-01-17 16:55:00,
2013-01-17 12:00:00,35.9,30.6,30.02,WNW,301,2.0,8.0,81,0.00,,,0.07,Wunderground v.1.15,2013-01-17 17:00:00,
2013-01-17 12:05:00,35.8,30.5,30.03,North,350,3.0,8.0,81,0.06,,,0.08,Wunderground v.1.15,2013-01-17 17:05:00,
2013-01-17 12:10:00,35.8,30.5,30.03,North,360,2.0,2.0,81,0.06,,,0.08,Wunderground v.1.15,2013-01-17 17:10:00,
2013-01-17 12:15:00,35.7,30.7,30.03,NNW,336,2.0,3.0,82,0.09,,,0.09,Wunderground v.1.15,2013-01-17 17:15:00,
2013-01-17 12:20:00,35.8,31.1,30.04,NE,47,1.0,8.0,83,0.07,,,0.09,Wunderground v.1.15,2013-01-17 17:20:00,
2013-01-17 12:30:00,36.2,30.9,30.02,North,355,1.0,1.0,81,0.08,,,0.11,Wunderground v.1.15,2013-01-17 17:30:00,
2013-01-17 12:35:00,36.8,31.2,30.03,NNE,33,1.0,8.0,80,0.08,,,0.11,Wunderground v.1.15,2013-01-17 17:35:00,
2013-01-17 12:40:00,37.2,31.0,30.03,NNW,341,1.0,8.0,78,0.07,,,0.12,Wunderground v.1.15,2013-01-17 17:40:00,
2013-01-17 12:45:00,37.6,31.7,30.03,NW,313,2.0,8.0,79,0.11,,,0.13,Wunderground v.1.15,2013-01-17 17:45:00,
2013-01-17 12:50:00,37.8,31.6,30.04,NW,316,2.0,2.0,78,0.11,,,0.13,Wunderground v.1.15,2013-01-17 17:50:00,
2013-01-17 12:55:00,37.9,31.0,30.03,NW,324,2.0,3.0,76,0.08,,,0.14,Wunderground v.1.15,2013-01-17 17:55:00,
2013-01-17 13:00:00,38.2,31.3,30.03,NNE,22,2.0,8.0,76,0.10,,,0.15,Wunderground v.1.15,2013-01-17 18:00:00,
2013-01-17 13:10:00,37.7,30.8,30.03,NW,320,2.0,8.0,76,0.08,,,0.16,Wunderground v.1.15,2013-01-17 18:10:00,
2013-01-17 13:15:00,37.1,30.2,30.03,NE,38,3.0,8.0,76,0.10,,,0.17,Wunderground v.1.15,2013-01-17 18:15:00,
2013-01-17 13:20:00,36.7,30.5,30.03,North,5,3.0,3.0,78,0.07,,,0.17,Wunderground v.1.15,2013-01-17 18:20:00,
2013-01-17 13:25:00,36.6,30.4,30.03,NNW,348,2.0,8.0,78,0.05,,,0.18,Wunderground v.1.15,2013-01-17 18:25:00,
2013-01-17 13:30:00,36.6,30.4,30.03,NNW,343,1.0,8.0,78,0.05,,,0.18,Wunderground v.1.15,2013-01-17 18:30:00,
2013-01-17 13:35:00,36.5,30.0,30.03,NNW,338,1.0,8.0,77,0.06,,,0.19,Wunderground v.1.15,2013-01-17 18:35:00,
2013-01-17 13:45:00,36.9,30.4,30.03,North,11,1.0,3.0,77,0.05,,,0.19,Wunderground v.1.15,2013-01-17 18:45:00,
2013-01-17 13:50:00,37.0,30.8,30.03,North,355,1.0,8.0,78,0.04,,,0.20,Wunderground v.1.15,2013-01-17 18:50:00,
2013-01-17 13:55:00,37.0,30.5,30.03,NNE,12,1.0,8.0,77,0.04,,,0.20,Wunderground v.1.15,2013-01-17 18:55:00,
2013-01-17 14:00:00,36.8,30.3,30.04,NNE,24,1.0,8.0,77,0.06,,,0.21,Wunderground v.1.15,2013-01-17 19:00:00,
2013-01-17 14:05:00,36.6,29.7,30.04,NNE,16,2.0,8.0,76,0.06,,,0.21,Wunderground v.1.15,2013-01-17 19:05:00,
2013-01-17 14:10:00,36.3,29.8,30.04,NE,37,2.0,2.0,77,0.05,,,0.21,Wunderground v.1.15,2013-01-17 19:10:00,
2013-01-17 14:20:00,36.0,29.8,30.04,NE,46,2.0,2.0,78,0.00,,,0.22,Wunderground v.1.15,2013-01-17 19:20:00,
2013-01-17 14:25:00,35.9,30.0,30.04,North,360,1.0,8.0,79,0.00,,,0.22,Wunderground v.1.15,2013-01-17 19:25:00,
2013-01-17 14:30:00,36.0,30.1,30.04,NNE,19,0.0,8.0,79,0.00,,,0.22,Wunderground v.1.15,2013-01-17 19:30:00,
2013-01-17 14:35:00,35.9,29.7,30.04,North,5,1.0,8.0,78,0.00,,,0.22,Wunderground v.1.15,2013-01-17 19:35:00,
2013-01-17 14:40:00,35.8,29.3,30.04,North,360,1.0,8.0,77,0.00,,,0.23,Wunderground v.1.15,2013-01-17 19:40:00,
2013-01-17 14:45:00,35.7,29.8,30.04,NE,41,1.0,8.0,79,0.00,,,0.23,Wunderground v.1.15,2013-01-17 19:45:00,
2013-01-17 14:55:00,35.2,29.3,30.05,ENE,65,2.0,5.0,79,0.00,,,0.23,Wunderground v.1.15,2013-01-17 19:55:00,
2013-01-17 15:00:00,35.0,29.5,30.05,NE,39,3.0,3.0,80,0.00,,,0.23,Wunderground v.1.15,2013-01-17 20:00:00,
2013-01-17 15:05:00,34.8,29.6,30.05,East,82,2.0,8.0,81,0.00,,,0.23,Wunderground v.1.15,2013-01-17 20:05:00,
2013-01-17 15:15:00,34.6,29.7,30.05,NNE,28,2.0,8.0,82,0.00,,,0.23,Wunderground v.1.15,2013-01-17 20:15:00,
2013-01-17 15:20:00,34.5,29.6,30.05,East,97,2.0,8.0,82,0.00,,,0.23,Wunderground v.1.15,2013-01-17 20:20:00,
2013-01-17 15:25:00,34.1,28.6,30.05,ENE,67,3.0,8.0,80,0.00,,,0.23,Wunderground v.1.15,2013-01-17 20:25:00,
2013-01-17 15:30:00,33.5,28.0,30.05,NE,44,4.0,8.0,80,0.00,,,0.23,Wunderground v.1.15,2013-01-17 20:30:00,
2013-01-17 15:40:00,33.0,27.5,30.05,ENE,69,3.0,8.0,80,0.00,,,0.23,Wunderground v.1.15,2013-01-17 20:40:00,
2013-01-17 15:45:00,32.8,27.0,30.05,ENE,68,4.0,8.0,79,0.00,,,0.23,Wunderground v.1.15,2013-01-17 20:45:00,
2013-01-17 15:55:00,32.6,27.4,30.06,East,83,3.0,8.0,81,0.00,,,0.23,Wunderground v.1.15,2013-01-17 20:55:00,
2013-01-17 16:00:00,32.5,26.7,30.06,NE,35,3.0,3.0,79,0.00,,,0.23,Wunderground v.1.15,2013-01-17 21:00:00,
2013-01-17 16:10:00,32.3,26.5,30.06,NE,37,3.0,3.0,79,0.00,,,0.23,Wunderground v.1.15,2013-01-17 21:10:00,
2013-01-17 16:15:00,32.2,26.7,30.08,North,5,3.0,8.0,80,0.00,,,0.24,Wunderground v.1.15,2013-01-17 21:15:00,
2013-01-17 16:20:00,32.1,26.3,30.07,ENE,57,2.0,8.0,79,0.00,,,0.24,Wunderground v.1.15,2013-01-17 21:20:00,
2013-01-17 16:25:00,32.0,26.2,30.07,ENE,57,3.0,8.0,79,0.00,,,0.24,Wunderground v.1.15,2013-01-17 21:25:00,
2013-01-17 16:30:00,31.8,26.3,30.07,East,89,3.0,3.0,80,0.00,,,0.24,Wunderground v.1.15,2013-01-17 21:30:00,
2013-01-17 16:35:00,31.6,25.8,30.08,NNE,26,2.0,4.0,79,0.00,,,0.24,Wunderground v.1.15,2013-01-17 21:35:00,
2013-01-17 16:45:00,31.2,25.1,30.08,NNE,13,4.0,8.0,78,0.00,,,0.24,Wunderground v.1.15,2013-01-17 21:45:00,
2013-01-17 16:50:00,31.2,25.4,30.08,NE,43,3.0,8.0,79,0.00,,,0.24,Wunderground v.1.15,2013-01-17 21:50:00,
2013-01-17 16:55:00,31.0,24.9,30.08,NE,43,2.0,8.0,78,0.00,,,0.24,Wunderground v.1.15,2013-01-17 21:55:00,
2013-01-17 17:00:00,30.8,24.4,30.08,NE,40,3.0,8.0,77,0.00,,,0.24,Wunderground v.1.15,2013-01-17 22:00:00,
2013-01-17 17:05:00,30.6,24.2,30.08,ENE,61,4.0,8.0,77,0.00,,,0.24,Wunderground v.1.15,2013-01-17 22:05:00,
2013-01-17 17:10:00,30.4,23.4,30.09,NE,49,5.0,8.0,75,0.00,,,0.24,Wunderground v.1.15,2013-01-17 22:10:00,
2013-01-17 17:20:00,30.2,22.9,30.09,NNE,16,4.0,4.0,74,0.00,,,0.24,Wunderground v.1.15,2013-01-17 22:20:00,
2013-01-17 17:25:00,30.1,23.1,30.09,North,9,3.0,8.0,75,0.00,,,0.24,Wunderground v.1.15,2013-01-17 22:25:00,
2013-01-17 17:30:00,29.9,22.6,30.09,North,11,3.0,8.0,74,0.00,,,0.24,Wunderground v.1.15,2013-01-17 22:30:00,
2013-01-17 17:40:00,29.7,22.1,30.09,NNE,32,3.0,8.0,73,0.00,,,0.24,Wunderground v.1.15,2013-01-17 22:40:00,
2013-01-17 17:45:00,29.6,22.0,30.09,ENE,74,3.0,8.0,73,0.00,,,0.24,Wunderground v.1.15,2013-01-17 22:45:00,
2013-01-17 17:50:00,29.5,21.9,30.10,NE,53,4.0,8.0,73,0.00,,,0.24,Wunderground v.1.15,2013-01-17 22:50:00,
2013-01-17 17:55:00,29.4,22.1,30.11,NE,39,3.0,8.0,74,0.00,,,0.24,Wunderground v.1.15,2013-01-17 22:55:00,
2013-01-17 18:05:00,29.2,21.6,30.12,NE,34,3.0,8.0,73,0.00,,,0.24,Wunderground v.1.15,2013-01-17 23:05:00,
2013-01-17 18:15:00,28.8,20.9,30.11,NE,34,3.0,8.0,72,0.00,,,0.24,Wunderground v.1.15,2013-01-17 23:15:00,
2013-01-17 18:20:00,28.7,20.8,30.10,ENE,64,4.0,8.0,72,0.00,,,0.24,Wunderground v.1.15,2013-01-17 23:20:00,
2013-01-17 18:25:00,28.5,20.9,30.10,ENE,61,4.0,8.0,73,0.00,,,0.24,Wunderground v.1.15,2013-01-17 23:25:00,
2013-01-17 18:30:00,28.5,21.3,30.10,NE,42,2.0,2.0,74,0.00,,,0.24,Wunderground v.1.15,2013-01-17 23:30:00,
2013-01-17 18:35:00,28.4,20.8,30.11,NNE,27,1.0,8.0,73,0.00,,,0.24,Wunderground v.1.15,2013-01-17 23:35:00,
2013-01-17 18:45:00,28.1,20.9,30.11,East,82,2.0,8.0,74,0.00,,,0.24,Wunderground v.1.15,2013-01-17 23:45:00,
2013-01-17 18:55:00,28.0,20.8,30.12,NNE,21,2.0,8.0,74,0.00,,,0.24,Wunderground v.1.15,2013-01-17 23:55:00,
2013-01-17 19:00:00,27.9,21.0,30.12,NE,49,2.0,2.0,75,0.00,,,0.24,Wunderground v.1.15,2013-01-18 00:00:00,
2013-01-17 19:05:00,27.8,20.9,30.12,NE,46,2.0,8.0,75,0.00,,,0.24,Wunderground v.1.15,2013-01-18 00:05:00,
2013-01-17 19:10:00,27.8,21.2,30.12,NE,56,1.0,8.0,76,0.00,,,0.24,Wunderground v.1.15,2013-01-18 00:10:00,
2013-01-17 19:15:00,27.8,20.9,30.11,NE,45,2.0,8.0,75,0.00,,,0.24,Wunderground v.1.15,2013-01-18 00:15:00,
2013-01-17 19:20:00,27.8,21.2,30.11,NE,51,2.0,8.0,76,0.00,,,0.24,Wunderground v.1.15,2013-01-18 00:20:00,
2013-01-17 19:25:00,27.8,21.2,30.12,NE,38,1.0,8.0,76,0.00,,,0.24,Wunderground v.1.15,2013-01-18 00:25:00,
2013-01-17 19:30:00,27.7,21.1,30.12,NE,42,1.0,8.0,76,0.00,,,0.24,Wunderground v.1.15,2013-01-18 00:30:00,
2013-01-17 19:40:00,27.5,20.9,30.12,NNE,33,0.0,8.0,76,0.00,,,0.24,Wunderground v.1.15,2013-01-18 00:40:00,
2013-01-17 19:45:00,27.4,21.1,30.12,NE,39,1.0,8.0,77,0.00,,,0.24,Wunderground v.1.15,2013-01-18 00:45:00,
2013-01-17 19:50:00,27.2,21.2,30.11,ENE,62,2.0,2.0,78,0.00,,,0.24,Wunderground v.1.15,2013-01-18 00:50:00,
2013-01-17 19:55:00,27.0,21.1,30.11,NNE,19,3.0,3.0,78,0.00,,,0.24,Wunderground v.1.15,2013-01-18 00:55:00,
2013-01-17 20:00:00,26.9,21.3,30.11,NNE,32,3.0,8.0,79,0.00,,,0.24,Wunderground v.1.15,2013-01-18 01:00:00,
2013-01-17 20:05:00,26.8,21.2,30.12,NE,46,2.0,8.0,79,0.00,,,0.24,Wunderground v.1.15,2013-01-18 01:05:00,
2013-01-17 20:15:00,26.6,21.0,30.11,NNE,30,1.0,8.0,79,0.00,,,0.24,Wunderground v.1.15,2013-01-18 01:15:00,
2013-01-17 20:20:00,26.5,20.9,30.11,NE,55,1.0,8.0,79,0.00,,,0.24,Wunderground v.1.15,2013-01-18 01:20:00,
2013-01-17 20:25:00,26.4,20.8,30.11,NE,40,1.0,8.0,79,0.00,,,0.24,Wunderground v.1.15,2013-01-18 01:25:00,
2013-01-17 20:30:00,26.3,21.0,30.11,NE,40,1.0,1.0,80,0.00,,,0.24,Wunderground v.1.15,2013-01-18 01:30:00,
2013-01-17 20:35:00,26.2,20.9,30.12,ENE,62,1.0,8.0,80,0.00,,,0.24,Wunderground v.1.15,2013-01-18 01:35:00,
2013-01-17 20:40:00,26.2,20.9,30.11,ENE,61,0.0,8.0,80,0.00,,,0.24,Wunderground v.1.15,2013-01-18 01:40:00,
2013-01-17 20:50:00,25.9,20.0,30.11,NE,53,2.0,8.0,78,0.00,,,0.24,Wunderground v.1.15,2013-01-18 01:50:00,
2013-01-17 20:55:00,25.6,18.8,30.12,ESE,105,3.0,8.0,75,0.00,,,0.24,Wunderground v.1.15,2013-01-18 01:55:00,
2013-01-17 21:00:00,25.2,18.4,30.11,ENE,70,3.0,8.0,75,0.00,,,0.24,Wunderground v.1.15,2013-01-18 02:00:00,
2013-01-17 21:05:00,25.0,18.2,30.11,ENE,68,3.0,8.0,75,0.00,,,0.24,Wunderground v.1.15,2013-01-18 02:05:00,
2013-01-17 21:10:00,24.8,18.0,30.10,ENE,78,2.0,8.0,75,0.00,,,0.24,Wunderground v.1.15,2013-01-18 02:10:00,
2013-01-17 21:15:00,24.6,17.5,30.09,ENE,61,2.0,8.0,74,0.00,,,0.24,Wunderground v.1.15,2013-01-18 02:15:00,
2013-01-17 21:20:00,24.3,16.9,30.09,ENE,61,4.0,8.0,73,0.00,,,0.24,Wunderground v.1.15,2013-01-18 02:20:00,
2013-01-17 21:30:00,24.1,16.7,30.09,NE,42,4.0,4.0,73,0.00,,,0.24,Wunderground v.1.15,2013-01-18 02:30:00,
2013-01-17 21:40:00,23.9,16.5,30.09,NNE,22,2.0,2.0,73,0.00,,,0.24,Wunderground v.1.15,2013-01-18 02:40:00,
2013-01-17 21:45:00,23.8,16.1,30.09,East,92,3.0,3.0,72,0.00,,,0.24,Wunderground v.1.15,2013-01-18 02:45:00,
2013-01-17 21:50:00,23.8,16.1,30.09,North,5,3.0,3.0,72,0.00,,,0.24,Wunderground v.1.15,2013-01-18 02:50:00,
2013-01-17 21:55:00,23.7,16.0,30.09,NE,39,2.0,8.0,72,0.00,,,0.24,Wunderground v.1.15,2013-01-18 02:55:00,
2013-01-17 22:00:00,23.6,15.9,30.09,ESE,103,2.0,8.0,72,0.00,,,0.24,Wunderground v.1.15,2013-01-18 03:00:00,
2013-01-17 22:10:00,23.4,15.1,30.09,NE,46,2.0,8.0,70,0.00,,,0.24,Wunderground v.1.15,2013-01-18 03:10:00,
2013-01-17 22:15:00,23.3,15.0,30.09,East,86,2.0,8.0,70,0.00,,,0.24,Wunderground v.1.15,2013-01-18 03:15:00,
2013-01-17 22:20:00,23.3,14.3,30.09,ENE,76,3.0,8.0,68,0.00,,,0.24,Wunderground v.1.15,2013-01-18 03:20:00,
2013-01-17 22:25:00,23.1,14.1,30.08,ENE,58,4.0,8.0,68,0.00,,,0.24,Wunderground v.1.15,2013-01-18 03:25:00,
2013-01-17 22:30:00,23.1,14.1,30.08,East,85,3.0,3.0,68,0.00,,,0.24,Wunderground v.1.15,2013-01-18 03:30:00,
2013-01-17 22:35:00,23.0,13.7,30.08,NE,44,2.0,8.0,67,0.00,,,0.24,Wunderground v.1.15,2013-01-18 03:35:00,
2013-01-17 22:40:00,23.0,13.7,30.08,NE,55,2.0,8.0,67,0.00,,,0.24,Wunderground v.1.15,2013-01-18 03:40:00,
2013-01-17 22:50:00,22.9,13.2,30.07,ENE,59,3.0,8.0,66,0.00,,,0.24,Wunderground v.1.15,2013-01-18 03:50:00,
2013-01-17 23:00:00,22.8,13.1,30.06,East,86,3.0,3.0,66,0.00,,,0.24,Wunderground v.1.15,2013-01-18 04:00:00,
2013-01-17 23:05:00,22.7,13.0,30.07,NNE,19,3.0,8.0,66,0.00,,,0.24,Wunderground v.1.15,2013-01-18 04:05:00,
2013-01-17 23:10:00,22.7,12.7,30.05,NE,54,3.0,8.0,65,0.00,,,0.24,Wunderground v.1.15,2013-01-18 04:10:00,
2013-01-17 23:15:00,22.7,12.7,30.05,ENE,69,3.0,8.0,65,0.00,,,0.24,Wunderground v.1.15,2013-01-18 04:15:00,
2013-01-17 23:20:00,22.6,12.9,30.05,ENE,67,3.0,3.0,66,0.00,,,0.24,Wunderground v.1.15,2013-01-18 04:20:00,
2013-01-17 23:25:00,22.6,12.9,30.04,ENE,58,2.0,8.0,66,0.00,,,0.24,Wunderground v.1.15,2013-01-18 04:25:00,
2013-01-17 23:35:00,22.6,12.6,30.08,NE,54,2.0,8.0,65,0.00,,,0.24,Wunderground v.1.15,2013-01-18 04:35:00,
2013-01-17 23:40:00,22.6,12.6,30.09,ENE,59,1.0,1.0,65,0.00,,,0.24,Wunderground v.1.15,2013-01-18 04:40:00,
2013-01-17 23:45:00,22.6,12.2,30.09,East,87,1.0,5.0,64,0.00,,,0.24,Wunderground v.1.15,2013-01-18 04:45:00,
2013-01-17 23:50:00,22.6,12.2,30.10,ENE,59,2.0,8.0,64,0.00,,,0.24,Wunderground v.1.15,2013-01-18 04:50:00,
2013-01-17 23:55:00,22.5,12.8,30.09,NE,53,2.0,8.0,66,0.00,,,0.24,Wunderground v.1.15,2013-01-18 04:55:00,